sensor_id;sensor_type;location;lat;lon;timestamp;pressure;altitude;pressure_sealevel;temperature;humidity
65832;BME280;52593;42.648;23.332;2023-02-18T00:01:00;95292.13;;;1.39;70.26
65832;BME280;52593;42.648;23.332;2023-02-18T00:03:27;95304.47;;;1.39;70.79
65832;BME280;52593;42.648;23.332;2023-02-18T00:05:53;95301.72;;;1.40;70.27
65832;BME280;52593;42.648;23.332;2023-02-18T00:08:19;95283.50;;;1.24;70.56
65832;BME280;52593;42.648;23.332;2023-02-18T00:10:45;95281.59;;;1.27;71.39
65832;BME280;52593;42.648;23.332;2023-02-18T00:13:11;95280.88;;;1.12;71.63
65832;BME280;52593;42.648;23.332;2023-02-18T00:15:37;95276.16;;;1.17;71.58
65832;BME280;52593;42.648;23.332;2023-02-18T00:18:04;95267.16;;;1.19;71.13
65832;BME280;52593;42.648;23.332;2023-02-18T00:20:29;95269.28;;;1.14;71.33
65832;BME280;52593;42.648;23.332;2023-02-18T00:22:57;95264.34;;;1.10;71.60
65832;BME280;52593;42.648;23.332;2023-02-18T00:25:23;95262.75;;;1.20;71.37
65832;BME280;52593;42.648;23.332;2023-02-18T00:27:48;95249.78;;;1.17;71.69
65832;BME280;52593;42.648;23.332;2023-02-18T00:30:14;95245.22;;;1.19;71.03
65832;BME280;52593;42.648;23.332;2023-02-18T00:32:39;95246.94;;;1.20;71.05
65832;BME280;52593;42.648;23.332;2023-02-18T00:35:05;95238.25;;;1.18;71.53
65832;BME280;52593;42.648;23.332;2023-02-18T00:37:30;95234.31;;;0.99;71.25
65832;BME280;52593;42.648;23.332;2023-02-18T00:39:56;95236.63;;;1.04;71.73
65832;BME280;52593;42.648;23.332;2023-02-18T00:42:21;95233.16;;;1.03;71.82
65832;BME280;52593;42.648;23.332;2023-02-18T00:44:46;95239.47;;;1.01;71.72
65832;BME280;52593;42.648;23.332;2023-02-18T00:47:12;95247.38;;;1.01;72.20
65832;BME280;52593;42.648;23.332;2023-02-18T00:49:37;95230.34;;;0.94;72.11
65832;BME280;52593;42.648;23.332;2023-02-18T00:52:03;95233.94;;;0.80;73.32
65832;BME280;52593;42.648;23.332;2023-02-18T00:54:28;95253.59;;;0.87;72.99
65832;BME280;52593;42.648;23.332;2023-02-18T00:56:54;95244.03;;;0.86;72.63
65832;BME280;52593;42.648;23.332;2023-02-18T00:59:19;95249.94;;;0.89;72.92
65832;BME280;52593;42.648;23.332;2023-02-18T01:01:45;95233.81;;;0.81;72.74
65832;BME280;52593;42.648;23.332;2023-02-18T01:04:10;95228.97;;;0.88;73.13
65832;BME280;52593;42.648;23.332;2023-02-18T01:06:36;95235.94;;;0.89;72.73
65832;BME280;52593;42.648;23.332;2023-02-18T01:09:02;95227.81;;;0.92;72.73
65832;BME280;52593;42.648;23.332;2023-02-18T01:11:28;95236.13;;;0.86;72.44
65832;BME280;52593;42.648;23.332;2023-02-18T01:13:53;95237.06;;;0.98;72.53
65832;BME280;52593;42.648;23.332;2023-02-18T01:16:18;95230.84;;;0.99;72.38
65832;BME280;52593;42.648;23.332;2023-02-18T01:18:44;95230.19;;;1.08;71.90
65832;BME280;52593;42.648;23.332;2023-02-18T01:21:09;95226.50;;;0.98;72.04
65832;BME280;52593;42.648;23.332;2023-02-18T01:23:37;95233.66;;;1.09;71.83
65832;BME280;52593;42.648;23.332;2023-02-18T01:26:03;95226.59;;;1.09;72.02
65832;BME280;52593;42.648;23.332;2023-02-18T01:28:28;95229.91;;;1.00;71.75
65832;BME280;52593;42.648;23.332;2023-02-18T01:30:54;95225.06;;;0.94;72.01
65832;BME280;52593;42.648;23.332;2023-02-18T01:33:19;95232.03;;;0.82;72.51
65832;BME280;52593;42.648;23.332;2023-02-18T01:35:45;95228.22;;;0.86;72.08
65832;BME280;52593;42.648;23.332;2023-02-18T01:38:11;95221.81;;;0.77;72.80
65832;BME280;52593;42.648;23.332;2023-02-18T01:40:45;95233.63;;;0.84;72.46
65832;BME280;52593;42.648;23.332;2023-02-18T01:43:11;95211.78;;;0.82;72.28
65832;BME280;52593;42.648;23.332;2023-02-18T01:45:48;95240.25;;;0.77;72.76
65832;BME280;52593;42.648;23.332;2023-02-18T01:48:28;95234.97;;;0.77;72.62
65832;BME280;52593;42.648;23.332;2023-02-18T01:51:09;95240.25;;;0.77;73.46
65832;BME280;52593;42.648;23.332;2023-02-18T01:53:44;95249.41;;;0.84;73.28
65832;BME280;52593;42.648;23.332;2023-02-18T01:56:15;95239.00;;;0.83;72.27
65832;BME280;52593;42.648;23.332;2023-02-18T01:58:43;95260.28;;;0.80;73.18
65832;BME280;52593;42.648;23.332;2023-02-18T02:01:09;95245.31;;;0.80;72.78
65832;BME280;52593;42.648;23.332;2023-02-18T02:03:35;95239.41;;;0.64;72.68
65832;BME280;52593;42.648;23.332;2023-02-18T02:06:00;95244.56;;;0.65;73.42
65832;BME280;52593;42.648;23.332;2023-02-18T02:08:27;95240.06;;;0.67;73.07
65832;BME280;52593;42.648;23.332;2023-02-18T02:11:06;95253.41;;;0.64;73.26
65832;BME280;52593;42.648;23.332;2023-02-18T02:27:25;95217.72;;;1.10;70.21
65832;BME280;52593;42.648;23.332;2023-02-18T02:35:44;95214.19;;;0.98;71.44
65832;BME280;52593;42.648;23.332;2023-02-18T02:38:37;95218.50;;;0.99;71.29
65832;BME280;52593;42.648;23.332;2023-02-18T02:41:11;95214.53;;;0.94;71.78
65832;BME280;52593;42.648;23.332;2023-02-18T02:44:06;95214.19;;;0.85;72.20
65832;BME280;52593;42.648;23.332;2023-02-18T02:46:40;95206.41;;;0.84;71.89
65832;BME280;52593;42.648;23.332;2023-02-18T02:52:07;95197.16;;;0.65;72.87
65832;BME280;52593;42.648;23.332;2023-02-18T02:54:33;95204.41;;;0.75;72.70
65832;BME280;52593;42.648;23.332;2023-02-18T02:57:36;95203.78;;;0.58;72.63
65832;BME280;52593;42.648;23.332;2023-02-18T02:59:56;95197.69;;;0.58;73.20
65832;BME280;52593;42.648;23.332;2023-02-18T03:11:09;95220.47;;;0.59;72.85
65832;BME280;52593;42.648;23.332;2023-02-18T03:16:16;95243.00;;;0.50;72.76
65832;BME280;52593;42.648;23.332;2023-02-18T03:18:56;95235.94;;;0.38;73.30
65832;BME280;52593;42.648;23.332;2023-02-18T03:26:33;95242.78;;;0.53;72.66
65832;BME280;52593;42.648;23.332;2023-02-18T03:29:04;95236.91;;;0.49;72.55
65832;BME280;52593;42.648;23.332;2023-02-18T03:31:33;95249.09;;;0.50;73.05
65832;BME280;52593;42.648;23.332;2023-02-18T03:34:10;95254.16;;;0.41;72.79
65832;BME280;52593;42.648;23.332;2023-02-18T03:36:37;95259.94;;;0.46;73.03
65832;BME280;52593;42.648;23.332;2023-02-18T03:39:18;95261.44;;;0.50;73.26
65832;BME280;52593;42.648;23.332;2023-02-18T03:41:43;95266.03;;;0.33;73.43
65832;BME280;52593;42.648;23.332;2023-02-18T03:44:11;95272.78;;;0.38;74.04
65832;BME280;52593;42.648;23.332;2023-02-18T03:46:39;95272.88;;;0.23;74.24
65832;BME280;52593;42.648;23.332;2023-02-18T03:49:05;95280.69;;;0.25;74.15
65832;BME280;52593;42.648;23.332;2023-02-18T03:51:31;95290.81;;;0.31;74.16
65832;BME280;52593;42.648;23.332;2023-02-18T03:53:56;95289.31;;;0.40;74.20
65832;BME280;52593;42.648;23.332;2023-02-18T03:56:22;95278.41;;;0.06;73.97
65832;BME280;52593;42.648;23.332;2023-02-18T03:58:48;95286.50;;;0.03;75.40
65832;BME280;52593;42.648;23.332;2023-02-18T04:01:13;95280.72;;;-0.03;75.45
65832;BME280;52593;42.648;23.332;2023-02-18T04:03:39;95262.31;;;-0.03;75.89
65832;BME280;52593;42.648;23.332;2023-02-18T04:06:05;95278.41;;;0.06;75.26
65832;BME280;52593;42.648;23.332;2023-02-18T04:08:30;95262.53;;;0.07;76.45
65832;BME280;52593;42.648;23.332;2023-02-18T04:10:56;95256.94;;;-0.01;75.68
65832;BME280;52593;42.648;23.332;2023-02-18T04:13:21;95235.03;;;-0.02;76.25
65832;BME280;52593;42.648;23.332;2023-02-18T04:15:50;95264.94;;;0.10;75.97
65832;BME280;52593;42.648;23.332;2023-02-18T04:18:16;95254.56;;;0.22;75.15
65832;BME280;52593;42.648;23.332;2023-02-18T04:20:42;95224.34;;;0.02;74.99
65832;BME280;52593;42.648;23.332;2023-02-18T04:23:07;95245.38;;;0.14;74.98
65832;BME280;52593;42.648;23.332;2023-02-18T04:25:33;95249.72;;;0.15;75.60
65832;BME280;52593;42.648;23.332;2023-02-18T04:27:58;95243.50;;;0.16;75.26
65832;BME280;52593;42.648;23.332;2023-02-18T04:30:24;95241.41;;;0.22;75.49
65832;BME280;52593;42.648;23.332;2023-02-18T04:32:49;95233.59;;;0.07;75.84
65832;BME280;52593;42.648;23.332;2023-02-18T04:35:15;95236.63;;;0.01;75.97
65832;BME280;52593;42.648;23.332;2023-02-18T04:37:40;95228.09;;;-0.03;76.20
65832;BME280;52593;42.648;23.332;2023-02-18T04:40:06;95230.72;;;-0.03;76.91
65832;BME280;52593;42.648;23.332;2023-02-18T04:42:32;95240.00;;;0.03;76.48
65832;BME280;52593;42.648;23.332;2023-02-18T04:44:57;95242.75;;;0.02;75.34
65832;BME280;52593;42.648;23.332;2023-02-18T04:47:22;95240.00;;;0.03;75.03
65832;BME280;52593;42.648;23.332;2023-02-18T04:49:48;95251.72;;;-0.15;76.05
65832;BME280;52593;42.648;23.332;2023-02-18T04:52:13;95241.66;;;-0.09;76.39
65832;BME280;52593;42.648;23.332;2023-02-18T04:54:39;95243.63;;;-0.12;76.07
65832;BME280;52593;42.648;23.332;2023-02-18T04:57:04;95250.59;;;-0.11;76.31
65832;BME280;52593;42.648;23.332;2023-02-18T04:59:30;95238.47;;;-0.14;75.96
65832;BME280;52593;42.648;23.332;2023-02-18T05:01:55;95241.81;;;-0.25;76.58
65832;BME280;52593;42.648;23.332;2023-02-18T05:04:20;95264.78;;;-0.14;77.05
65832;BME280;52593;42.648;23.332;2023-02-18T05:06:46;95260.72;;;-0.05;77.02
65832;BME280;52593;42.648;23.332;2023-02-18T05:09:12;95268.50;;;-0.04;76.13
65832;BME280;52593;42.648;23.332;2023-02-18T05:11:38;95283.16;;;0.01;76.20
65832;BME280;52593;42.648;23.332;2023-02-18T05:14:04;95286.81;;;-0.02;76.22
65832;BME280;52593;42.648;23.332;2023-02-18T05:16:29;95282.03;;;-0.23;77.07
65832;BME280;52593;42.648;23.332;2023-02-18T05:18:54;95278.94;;;-0.29;77.37
65832;BME280;52593;42.648;23.332;2023-02-18T05:21:20;95270.66;;;-0.23;77.78
65832;BME280;52593;42.648;23.332;2023-02-18T05:23:45;95255.53;;;-0.20;76.56
65832;BME280;52593;42.648;23.332;2023-02-18T05:26:10;95264.19;;;-0.05;76.42
65832;BME280;52593;42.648;23.332;2023-02-18T05:28:36;95260.91;;;-0.08;76.61
65832;BME280;52593;42.648;23.332;2023-02-18T05:31:01;95258.34;;;0.05;76.54
65832;BME280;52593;42.648;23.332;2023-02-18T05:33:27;95247.19;;;0.14;76.19
65832;BME280;52593;42.648;23.332;2023-02-18T05:35:52;95232.97;;;0.16;75.74
65832;BME280;52593;42.648;23.332;2023-02-18T05:38:18;95229.06;;;0.09;75.54
65832;BME280;52593;42.648;23.332;2023-02-18T05:40:43;95241.72;;;0.17;76.74
65832;BME280;52593;42.648;23.332;2023-02-18T05:43:09;95228.66;;;0.28;75.55
65832;BME280;52593;42.648;23.332;2023-02-18T05:45:35;95214.16;;;0.35;75.42
65832;BME280;52593;42.648;23.332;2023-02-18T05:48:00;95229.81;;;0.50;74.86
65832;BME280;52593;42.648;23.332;2023-02-18T05:50:26;95243.09;;;0.61;74.04
65832;BME280;52593;42.648;23.332;2023-02-18T05:52:51;95250.38;;;0.70;73.60
65832;BME280;52593;42.648;23.332;2023-02-18T05:55:17;95259.41;;;0.79;72.67
65832;BME280;52593;42.648;23.332;2023-02-18T05:57:42;95267.31;;;0.79;73.14
65832;BME280;52593;42.648;23.332;2023-02-18T06:00:08;95262.78;;;0.68;73.68
65832;BME280;52593;42.648;23.332;2023-02-18T06:02:35;95268.91;;;0.82;72.75
65832;BME280;52593;42.648;23.332;2023-02-18T06:05:00;95271.97;;;0.76;72.98
65832;BME280;52593;42.648;23.332;2023-02-18T06:07:25;95276.72;;;0.70;73.75
65832;BME280;52593;42.648;23.332;2023-02-18T06:09:51;95284.72;;;0.82;73.71
65832;BME280;52593;42.648;23.332;2023-02-18T06:12:17;95271.66;;;0.80;73.35
65832;BME280;52593;42.648;23.332;2023-02-18T06:14:43;95253.31;;;0.79;73.54
65832;BME280;52593;42.648;23.332;2023-02-18T06:17:10;95259.75;;;0.87;72.68
65832;BME280;52593;42.648;23.332;2023-02-18T06:19:36;95276.25;;;1.02;73.14
65832;BME280;52593;42.648;23.332;2023-02-18T06:22:02;95262.00;;;1.18;72.21
65832;BME280;52593;42.648;23.332;2023-02-18T06:24:27;95266.09;;;1.35;72.12
65832;BME280;52593;42.648;23.332;2023-02-18T06:26:53;95263.84;;;1.41;72.17
65832;BME280;52593;42.648;23.332;2023-02-18T06:29:18;95262.13;;;1.53;71.61
65832;BME280;52593;42.648;23.332;2023-02-18T06:31:44;95251.03;;;1.61;71.58
65832;BME280;52593;42.648;23.332;2023-02-18T06:34:09;95250.16;;;1.85;70.91
65832;BME280;52593;42.648;23.332;2023-02-18T06:36:35;95247.47;;;1.98;69.96
65832;BME280;52593;42.648;23.332;2023-02-18T06:39:03;95232.63;;;2.08;67.84
65832;BME280;52593;42.648;23.332;2023-02-18T06:41:29;95240.97;;;2.26;68.88
65832;BME280;52593;42.648;23.332;2023-02-18T06:43:54;95230.41;;;2.37;68.28
65832;BME280;52593;42.648;23.332;2023-02-18T06:46:20;95246.56;;;2.57;68.02
65832;BME280;52593;42.648;23.332;2023-02-18T06:48:45;95246.59;;;2.68;67.06
65832;BME280;52593;42.648;23.332;2023-02-18T06:51:11;95235.91;;;2.81;66.85
65832;BME280;52593;42.648;23.332;2023-02-18T06:53:36;95247.09;;;2.96;65.88
65832;BME280;52593;42.648;23.332;2023-02-18T06:56:02;95240.56;;;3.00;64.70
65832;BME280;52593;42.648;23.332;2023-02-18T06:58:27;95239.13;;;3.07;64.75
65832;BME280;52593;42.648;23.332;2023-02-18T07:00:53;95241.53;;;3.21;64.41
65832;BME280;52593;42.648;23.332;2023-02-18T07:03:18;95236.72;;;3.27;65.09
65832;BME280;52593;42.648;23.332;2023-02-18T07:05:44;95238.03;;;3.44;64.45
65832;BME280;52593;42.648;23.332;2023-02-18T07:08:11;95250.63;;;3.51;63.23
65832;BME280;52593;42.648;23.332;2023-02-18T07:10:37;95248.94;;;3.50;64.02
65832;BME280;52593;42.648;23.332;2023-02-18T07:13:03;95239.78;;;3.66;63.27
65832;BME280;52593;42.648;23.332;2023-02-18T07:15:28;95252.63;;;3.82;62.57
65832;BME280;52593;42.648;23.332;2023-02-18T07:17:54;95239.00;;;3.86;61.08
65832;BME280;52593;42.648;23.332;2023-02-18T07:20:20;95225.53;;;3.89;60.84
65832;BME280;52593;42.648;23.332;2023-02-18T07:22:46;95224.13;;;4.06;60.49
65832;BME280;52593;42.648;23.332;2023-02-18T07:25:12;95215.78;;;4.11;59.82
65832;BME280;52593;42.648;23.332;2023-02-18T07:27:37;95232.00;;;4.18;59.53
65832;BME280;52593;42.648;23.332;2023-02-18T07:30:03;95227.09;;;4.13;59.27
65832;BME280;52593;42.648;23.332;2023-02-18T07:32:30;95220.31;;;4.20;58.51
65832;BME280;52593;42.648;23.332;2023-02-18T07:34:56;95228.66;;;4.16;58.49
65832;BME280;52593;42.648;23.332;2023-02-18T07:37:21;95229.09;;;4.21;58.67
65832;BME280;52593;42.648;23.332;2023-02-18T07:39:47;95246.03;;;4.29;58.65
65832;BME280;52593;42.648;23.332;2023-02-18T07:42:12;95254.66;;;4.43;57.44
65832;BME280;52593;42.648;23.332;2023-02-18T07:44:39;95249.94;;;4.46;57.21
65832;BME280;52593;42.648;23.332;2023-02-18T07:47:05;95261.38;;;4.47;57.59
65832;BME280;52593;42.648;23.332;2023-02-18T07:49:32;95252.28;;;4.61;56.40
65832;BME280;52593;42.648;23.332;2023-02-18T07:51:57;95270.63;;;4.53;57.59
65832;BME280;52593;42.648;23.332;2023-02-18T07:54:23;95275.66;;;4.56;57.09
65832;BME280;52593;42.648;23.332;2023-02-18T07:56:49;95268.22;;;4.71;56.61
65832;BME280;52593;42.648;23.332;2023-02-18T07:59:15;95271.97;;;4.89;56.76
65832;BME280;52593;42.648;23.332;2023-02-18T08:01:41;95258.69;;;5.10;55.41
65832;BME280;52593;42.648;23.332;2023-02-18T08:04:07;95247.53;;;5.16;54.69
65832;BME280;52593;42.648;23.332;2023-02-18T08:06:38;95244.03;;;5.16;55.13
65832;BME280;52593;42.648;23.332;2023-02-18T08:09:04;95246.88;;;5.24;53.61
65832;BME280;52593;42.648;23.332;2023-02-18T08:11:30;95250.03;;;5.49;54.01
65832;BME280;52593;42.648;23.332;2023-02-18T08:13:56;95236.81;;;5.68;52.94
65832;BME280;52593;42.648;23.332;2023-02-18T08:16:22;95259.03;;;5.67;53.05
65832;BME280;52593;42.648;23.332;2023-02-18T08:18:49;95246.44;;;5.69;53.38
65832;BME280;52593;42.648;23.332;2023-02-18T08:21:16;95245.66;;;5.88;53.88
65832;BME280;52593;42.648;23.332;2023-02-18T08:23:42;95246.53;;;6.09;53.29
65832;BME280;52593;42.648;23.332;2023-02-18T08:26:08;95224.00;;;6.03;52.36
65832;BME280;52593;42.648;23.332;2023-02-18T08:28:33;95223.31;;;6.30;52.50
65832;BME280;52593;42.648;23.332;2023-02-18T08:30:58;95237.75;;;6.37;51.45
65832;BME280;52593;42.648;23.332;2023-02-18T08:33:24;95214.34;;;6.51;51.43
65832;BME280;52593;42.648;23.332;2023-02-18T08:35:51;95215.91;;;6.43;50.99
65832;BME280;52593;42.648;23.332;2023-02-18T08:38:18;95211.53;;;6.62;50.67
65832;BME280;52593;42.648;23.332;2023-02-18T08:40:45;95218.66;;;6.71;49.12
65832;BME280;52593;42.648;23.332;2023-02-18T08:43:11;95219.34;;;6.73;49.25
65832;BME280;52593;42.648;23.332;2023-02-18T08:45:38;95207.03;;;6.72;49.18
65832;BME280;52593;42.648;23.332;2023-02-18T08:48:05;95205.06;;;6.74;49.08
65832;BME280;52593;42.648;23.332;2023-02-18T08:50:31;95209.03;;;6.98;47.83
65832;BME280;52593;42.648;23.332;2023-02-18T08:52:56;95211.72;;;6.98;47.54
65832;BME280;52593;42.648;23.332;2023-02-18T08:55:25;95221.38;;;6.99;48.39
65832;BME280;52593;42.648;23.332;2023-02-18T08:57:51;95223.84;;;7.10;47.68
65832;BME280;52593;42.648;23.332;2023-02-18T09:00:17;95225.44;;;7.03;47.87
65832;BME280;52593;42.648;23.332;2023-02-18T09:02:43;95230.84;;;7.11;48.45
65832;BME280;52593;42.648;23.332;2023-02-18T09:05:09;95233.13;;;7.06;48.42
65832;BME280;52593;42.648;23.332;2023-02-18T09:07:36;95223.25;;;7.17;48.76
65832;BME280;52593;42.648;23.332;2023-02-18T09:10:02;95231.53;;;7.23;48.21
65832;BME280;52593;42.648;23.332;2023-02-18T09:12:28;95221.16;;;7.20;48.76
65832;BME280;52593;42.648;23.332;2023-02-18T09:14:53;95237.44;;;7.17;48.34
65832;BME280;52593;42.648;23.332;2023-02-18T09:17:19;95237.69;;;7.24;47.88
65832;BME280;52593;42.648;23.332;2023-02-18T09:19:45;95217.41;;;7.13;48.15
65832;BME280;52593;42.648;23.332;2023-02-18T09:22:10;95213.28;;;7.28;47.95
65832;BME280;52593;42.648;23.332;2023-02-18T09:24:37;95223.03;;;7.47;47.28
65832;BME280;52593;42.648;23.332;2023-02-18T09:27:03;95226.44;;;7.58;46.55
65832;BME280;52593;42.648;23.332;2023-02-18T09:29:29;95230.78;;;7.59;47.18
65832;BME280;52593;42.648;23.332;2023-02-18T09:31:54;95204.25;;;7.67;46.69
65832;BME280;52593;42.648;23.332;2023-02-18T09:34:19;95196.34;;;7.75;46.63
65832;BME280;52593;42.648;23.332;2023-02-18T09:36:45;95193.47;;;7.86;45.80
65832;BME280;52593;42.648;23.332;2023-02-18T09:39:10;95193.00;;;7.91;46.77
65832;BME280;52593;42.648;23.332;2023-02-18T09:44:36;95182.78;;;8.40;44.81
65832;BME280;52593;42.648;23.332;2023-02-18T09:47:14;95192.47;;;8.60;45.12
65832;BME280;52593;42.648;23.332;2023-02-18T09:49:47;95195.78;;;8.80;44.46
65832;BME280;52593;42.648;23.332;2023-02-18T09:52:19;95195.03;;;8.96;44.19
65832;BME280;52593;42.648;23.332;2023-02-18T09:54:48;95188.84;;;8.87;43.83
65832;BME280;52593;42.648;23.332;2023-02-18T09:57:38;95204.69;;;8.88;44.40
65832;BME280;52593;42.648;23.332;2023-02-18T10:00:12;95185.88;;;8.98;42.92
65832;BME280;52593;42.648;23.332;2023-02-18T10:02:40;95195.34;;;8.92;47.90
65832;BME280;52593;42.648;23.332;2023-02-18T10:05:14;95186.16;;;9.21;45.86
65832;BME280;52593;42.648;23.332;2023-02-18T10:07:40;95189.06;;;9.28;43.33
65832;BME280;52593;42.648;23.332;2023-02-18T10:10:37;95180.28;;;9.52;43.16
65832;BME280;52593;42.648;23.332;2023-02-18T10:13:03;95168.63;;;9.61;42.82
65832;BME280;52593;42.648;23.332;2023-02-18T10:15:30;95174.91;;;9.95;44.69
65832;BME280;52593;42.648;23.332;2023-02-18T10:17:57;95164.75;;;10.31;42.15
65832;BME280;52593;42.648;23.332;2023-02-18T10:20:25;95167.41;;;10.81;43.21
65832;BME280;52593;42.648;23.332;2023-02-18T10:22:54;95156.03;;;10.95;42.56
65832;BME280;52593;42.648;23.332;2023-02-18T10:25:22;95164.00;;;11.12;40.02
65832;BME280;52593;42.648;23.332;2023-02-18T10:27:51;95163.13;;;11.28;39.71
65832;BME280;52593;42.648;23.332;2023-02-18T10:30:23;95153.88;;;11.38;39.95
65832;BME280;52593;42.648;23.332;2023-02-18T10:32:55;95152.84;;;11.79;38.27
65832;BME280;52593;42.648;23.332;2023-02-18T10:35:42;95155.00;;;11.84;38.38
65832;BME280;52593;42.648;23.332;2023-02-18T10:38:22;95156.44;;;11.63;39.96
65832;BME280;52593;42.648;23.332;2023-02-18T10:47:09;95129.31;;;12.44;37.41
65832;BME280;52593;42.648;23.332;2023-02-18T10:51:57;95113.72;;;12.77;36.76
65832;BME280;52593;42.648;23.332;2023-02-18T10:54:25;95120.22;;;13.13;36.69
65832;BME280;52593;42.648;23.332;2023-02-18T10:56:58;95111.22;;;13.50;35.94
65832;BME280;52593;42.648;23.332;2023-02-18T10:59:26;95101.34;;;13.87;36.38
65832;BME280;52593;42.648;23.332;2023-02-18T11:01:59;95095.13;;;13.72;34.52
65832;BME280;52593;42.648;23.332;2023-02-18T11:04:36;95100.94;;;13.54;35.08
65832;BME280;52593;42.648;23.332;2023-02-18T11:07:06;95091.50;;;12.83;35.56
65832;BME280;52593;42.648;23.332;2023-02-18T11:09:45;95100.09;;;12.64;35.54
65832;BME280;52593;42.648;23.332;2023-02-18T11:12:18;95083.03;;;12.57;35.76
65832;BME280;52593;42.648;23.332;2023-02-18T11:14:49;95075.28;;;12.62;35.74
65832;BME280;52593;42.648;23.332;2023-02-18T11:17:30;95081.97;;;12.96;35.91
65832;BME280;52593;42.648;23.332;2023-02-18T11:19:58;95082.31;;;13.08;35.02
65832;BME280;52593;42.648;23.332;2023-02-18T11:22:28;95082.44;;;13.14;35.24
65832;BME280;52593;42.648;23.332;2023-02-18T11:24:56;95072.69;;;13.13;35.98
65832;BME280;52593;42.648;23.332;2023-02-18T11:27:29;95066.88;;;13.10;35.88
65832;BME280;52593;42.648;23.332;2023-02-18T11:30:03;95045.81;;;13.13;35.93
65832;BME280;52593;42.648;23.332;2023-02-18T11:32:30;95049.91;;;13.09;35.95
65832;BME280;52593;42.648;23.332;2023-02-18T11:34:58;95047.09;;;13.32;34.85
65832;BME280;52593;42.648;23.332;2023-02-18T11:37:24;95035.47;;;13.62;34.45
65832;BME280;52593;42.648;23.332;2023-02-18T11:39:52;95028.56;;;13.96;34.10
65832;BME280;52593;42.648;23.332;2023-02-18T11:42:21;95025.88;;;13.96;34.25
65832;BME280;52593;42.648;23.332;2023-02-18T11:44:55;95023.56;;;14.14;34.55
65832;BME280;52593;42.648;23.332;2023-02-18T11:47:27;95011.81;;;14.22;33.76
65832;BME280;52593;42.648;23.332;2023-02-18T11:52:38;95004.06;;;14.34;33.40
65832;BME280;52593;42.648;23.332;2023-02-18T11:55:24;95006.00;;;14.47;32.93
65832;BME280;52593;42.648;23.332;2023-02-18T11:57:58;94998.72;;;14.69;32.64
65832;BME280;52593;42.648;23.332;2023-02-18T12:06:04;94963.09;;;15.15;31.70
65832;BME280;52593;42.648;23.332;2023-02-18T12:08:39;94969.16;;;15.24;31.45
65832;BME280;52593;42.648;23.332;2023-02-18T12:11:17;94965.91;;;15.62;31.33
65832;BME280;52593;42.648;23.332;2023-02-18T12:13:55;94954.38;;;15.88;30.02
65832;BME280;52593;42.648;23.332;2023-02-18T12:22:21;94966.56;;;16.64;29.67
65832;BME280;52593;42.648;23.332;2023-02-18T12:35:55;94953.31;;;15.89;29.24
65832;BME280;52593;42.648;23.332;2023-02-18T13:08:31;94932.34;;;16.18;30.80
65832;BME280;52593;42.648;23.332;2023-02-18T13:13:38;94928.41;;;16.20;28.64
65832;BME280;52593;42.648;23.332;2023-02-18T13:16:09;94929.41;;;16.39;28.42
65832;BME280;52593;42.648;23.332;2023-02-18T13:18:43;94924.25;;;16.04;28.77
65832;BME280;52593;42.648;23.332;2023-02-18T13:21:14;94936.72;;;16.05;28.84
65832;BME280;52593;42.648;23.332;2023-02-18T13:23:53;94928.19;;;16.22;28.67
65832;BME280;52593;42.648;23.332;2023-02-18T13:26:20;94934.63;;;16.21;28.88
65832;BME280;52593;42.648;23.332;2023-02-18T13:29:18;94938.75;;;16.44;28.68
65832;BME280;52593;42.648;23.332;2023-02-18T13:34:47;94918.78;;;15.51;29.33
65832;BME280;52593;42.648;23.332;2023-02-18T13:40:16;94941.13;;;15.25;30.03
65832;BME280;52593;42.648;23.332;2023-02-18T13:42:43;94938.38;;;15.11;30.16
65832;BME280;52593;42.648;23.332;2023-02-18T13:45:29;94919.91;;;14.95;30.61
65832;BME280;52593;42.648;23.332;2023-02-18T13:47:56;94905.22;;;15.04;30.38
65832;BME280;52593;42.648;23.332;2023-02-18T13:50:23;94923.31;;;15.30;30.29
65832;BME280;52593;42.648;23.332;2023-02-18T13:53:11;94918.28;;;15.07;30.45
65832;BME280;52593;42.648;23.332;2023-02-18T13:58:20;94917.63;;;14.57;33.22
65832;BME280;52593;42.648;23.332;2023-02-18T14:00:54;94919.13;;;14.31;33.84
65832;BME280;52593;42.648;23.332;2023-02-18T14:06:19;94915.81;;;14.01;33.98
65832;BME280;52593;42.648;23.332;2023-02-18T14:08:45;94908.81;;;13.78;34.67
65832;BME280;52593;42.648;23.332;2023-02-18T14:16:05;94919.66;;;13.63;35.34
65832;BME280;52593;42.648;23.332;2023-02-18T14:28:40;94935.19;;;12.88;36.58
65832;BME280;52593;42.648;23.332;2023-02-18T14:36:48;94922.78;;;12.87;36.93
65832;BME280;52593;42.648;23.332;2023-02-18T14:39:35;94938.44;;;12.83;36.92
65832;BME280;52593;42.648;23.332;2023-02-18T14:48:34;94937.69;;;12.90;36.98
65832;BME280;52593;42.648;23.332;2023-02-18T14:51:04;94941.63;;;12.94;36.90
65832;BME280;52593;42.648;23.332;2023-02-18T14:53:29;94930.00;;;12.87;36.91
65832;BME280;52593;42.648;23.332;2023-02-18T14:56:03;94932.94;;;12.92;37.02
65832;BME280;52593;42.648;23.332;2023-02-18T14:58:34;94936.38;;;12.85;37.31
65832;BME280;52593;42.648;23.332;2023-02-18T15:01:22;94933.44;;;12.80;37.21
65832;BME280;52593;42.648;23.332;2023-02-18T15:03:48;94935.28;;;12.80;37.66
65832;BME280;52593;42.648;23.332;2023-02-18T15:06:43;94926.69;;;12.70;37.71
65832;BME280;52593;42.648;23.332;2023-02-18T15:09:18;94934.66;;;12.63;38.09
65832;BME280;52593;42.648;23.332;2023-02-18T15:11:48;94921.03;;;12.49;38.23
65832;BME280;52593;42.648;23.332;2023-02-18T15:14:19;94916.59;;;12.42;38.37
65832;BME280;52593;42.648;23.332;2023-02-18T15:16:47;94924.41;;;12.37;38.68
65832;BME280;52593;42.648;23.332;2023-02-18T15:19:15;94926.44;;;12.20;38.96
65832;BME280;52593;42.648;23.332;2023-02-18T15:21:49;94924.13;;;12.17;39.31
65832;BME280;52593;42.648;23.332;2023-02-18T15:24:33;94920.69;;;12.08;39.43
65832;BME280;52593;42.648;23.332;2023-02-18T15:27:02;94908.56;;;11.97;39.58
65832;BME280;52593;42.648;23.332;2023-02-18T15:29:32;94909.25;;;11.91;39.90
65832;BME280;52593;42.648;23.332;2023-02-18T15:31:58;94906.13;;;11.87;39.93